Pocatello, ID

7:31 AM MST on December 03, 2016 (GMT -0700)
Bonneville Park | | Change Station

Elev 4606 ft 42.87 °N, 112.43 °W | Updated 5 seconds ago

Overcast
Overcast
26.2 °F
Feels Like 22 °F
N
3.2
Wind Variable Wind from ENE

Today
High -- | Low -- °F
--% Chance of Precip.
Yesterday
High -- | Low -- °F
Precip. -- in
Pressure 30.30 in
Visibility 10.0 miles
Clouds Overcast 4200 ft
Windchill 22 °F
Dew Point 19 °F
Humidity 73%
Rainfall 0.00 in
Snow Depth Not available.
7:43 AM 4:55 PM
Waxing Crescent, 15% visible
METAR KPIH 031353Z 23007KT 10SM OVC042 M02/M07 A3021 RMK AO2 SLP259 T10171072 $
Pressure 30.30 in
Visibility 10.0 miles
Clouds Overcast 4200 ft
Windchill 22 °F
Dew Point 19 °F
Humidity 73%
Rainfall 0.00 in
Snow Depth Not available.
7:43 AM 4:55 PM
Waxing Crescent, 15% visible
METAR KPIH 031353Z 23007KT 10SM OVC042 M02/M07 A3021 RMK AO2 SLP259 T10171072 $

10-Day Weather Forecast

Almanac

Astronomy

Dec. 03, 2016 Rise Set
Actual Time
Civil Twilight
Nautical Twilight
Astronomical Twilight
Moon
Length of Visible Light
Length of Day
Tomorrow will be .
, % of the Moon is Illuminated

Today's Extremes

State Highs State Lows

Community

WunderPhotos

Upload Photos

1,955,446 photos uploaded!

WunderBlog® & News

Nearby

Air Quality

  Air Quality AQ Index Pollutant
Not available.

Snow Depth

Station Depth Elevation

Earthquake Activity

City Distance Mag. Time & Date
Minimum magnitude displayed is 2.5.

Coastal Water Temperatures

Place Temperature

Stations

Nearby Weather Stations

Station Location Temp. Windchill Dew Point Humidity Wind Precip. Elev Updated Type
                   

Watches & Warnings

There are currently no watches in effect.